This is the latest recevied weather packets stored in our database for station/object VE2CSM-13. If no packets are shown the sender has not sent any weather packets the latest 10 day(s).
| Time | Temp. | Humidity | Pressure | Rain* | Wind** | Luminosity | Snow |
|---|---|---|---|---|---|---|---|
| 1777529349 | 11.11° C | 73% | 1017.7 hPa | 0 mm | - | - | - |
| 1777529107 | 11.67° C | 73% | 1017.6 hPa | 0 mm | - | - | - |
| 1777528987 | 11.67° C | 73% | 1017.6 hPa | 0 mm | - | - | - |
| 1777527503 | 12.22° C | 70% | 1017.8 hPa | 0 mm | - | - | - |
| 1777523903 | 13.33° C | 65% | 1018.1 hPa | 0 mm | - | - | - |
| 1777520303 | 13.89° C | 62% | 1018 hPa | 0 mm | - | - | - |
| 1777516703 | 14.44° C | 54% | 1018.4 hPa | 0 mm | - | - | - |
| 1777514902 | 14.44° C | 58% | 1018.1 hPa | 0 mm | - | - | - |
| 1777513102 | 14.44° C | 55% | 1018.4 hPa | 0 mm | - | - | - |
| 1777511305 | 13.89° C | 58% | 1018.3 hPa | 0 mm | - | - | - |
| 1777509502 | 14.44° C | 56% | 1018.5 hPa | 0 mm | - | - | - |
| 1777505902 | 15° C | 55% | 1018.4 hPa | 0 mm | - | - | - |
| 1777502302 | 16.67° C | 49% | 1019.1 hPa | 0 mm | - | - | - |
| 1777501342 | 16.67° C | 49% | 1019.7 hPa | 0 mm | - | - | - |
| 1777500383 | 16.67° C | 49% | 1019.9 hPa | 0 mm | - | - | - |
| 1777498463 | 16.67° C | 50% | 1019.8 hPa | 0 mm | - | - | - |
| 1777497982 | 16.67° C | 51% | 1019.8 hPa | 0 mm | - | - | - |
| 1777497502 | 16.67° C | 51% | 1020 hPa | 0 mm | - | - | - |
| 1777496543 | 16.67° C | 52% | 1020.3 hPa | 0 mm | - | - | - |
| 1777496302 | 16.67° C | 52% | 1020.3 hPa | 0 mm | - | - | - |
| 1777496063 | 16.67° C | 52% | 1020.3 hPa | 0 mm | - | - | - |
| 1777495584 | 16.11° C | 54% | 1020.5 hPa | 0 mm | - | - | - |
| 1777495462 | 16.11° C | 54% | 1020.5 hPa | 0 mm | - | - | - |
| 1777495342 | 16.11° C | 54% | 1020.5 hPa | 0 mm | - | - | - |
| 1777495222 | 16.11° C | 58% | 1020.4 hPa | 0 mm | - | - | - |
* Rain latest hour (hover to see other rain measurements)
** Current wind speed in m/s (hover to see current wind gust speed)